Terminal Aerodrome Forecast
Issued by NWS Glasgow, MT

Home | Current Version | Previous Version | Text Only | Print | Product List | Glossary On
Versions: 1 2 3 4 5 6 7 8 9 10 11 12 13 14
000
FTUS45 KGGW 311700
TAFGGW
TAF
KGGW 311720Z 3118/0118 13019G27KT P6SM SCT210
     FM010300 12013KT P6SM SCT220
     FM010900 11007KT P6SM SCT220=

USA.gov is the U.S. government's official web portal to all federal, state and local government web resources and services.